createdAt,value
2019-02-20T00:01:03.323Z,101637.60
2019-02-20T00:03:33.576Z,101640.41
2019-02-20T00:06:03.066Z,101653.03
2019-02-20T00:08:32.190Z,101648.66
2019-02-20T00:11:01.763Z,101652.39
2019-02-20T00:13:31.113Z,101665.75
2019-02-20T00:16:00.065Z,101654.17
2019-02-20T00:18:28.970Z,101658.84
2019-02-20T00:20:57.891Z,101650.80
2019-02-20T00:23:26.717Z,101659.73
2019-02-20T00:25:58.454Z,101664.41
2019-02-20T00:28:28.641Z,101603.47
2019-02-20T00:30:58.178Z,101663.43
2019-02-20T00:33:27.391Z,101669.08
2019-02-20T00:35:56.355Z,101662.78
2019-02-20T00:38:25.860Z,101672.50
2019-02-20T00:40:56.467Z,101675.13
2019-02-20T00:43:25.998Z,101671.41
2019-02-20T00:46:26.868Z,101677.18
2019-02-20T00:49:09.233Z,101677.09
2019-02-20T00:51:57.290Z,101676.97
2019-02-20T00:54:26.207Z,101680.12
2019-02-20T00:56:55.251Z,101683.66
2019-02-20T00:59:24.528Z,101676.05
2019-02-20T01:01:55.836Z,101683.20
2019-02-20T01:04:24.834Z,101680.39
2019-02-20T01:17:39.079Z,101681.45
2019-02-20T01:20:08.430Z,101688.74
2019-02-20T01:22:37.551Z,101679.34
2019-02-20T01:25:06.607Z,101676.77
2019-02-20T01:27:35.608Z,101687.91
2019-02-20T01:30:04.996Z,101678.88
2019-02-20T01:32:34.299Z,101687.22
2019-02-20T01:35:03.590Z,101692.42
2019-02-20T01:37:33.095Z,101685.11
2019-02-20T01:40:02.317Z,101696.42
2019-02-20T01:42:31.277Z,101694.84
2019-02-20T01:45:00.298Z,101696.70
2019-02-20T01:47:29.413Z,101694.78
2019-02-20T01:50:36.964Z,101694.38
2019-02-20T01:53:10.352Z,101696.67
2019-02-20T01:55:35.922Z,101695.84
2019-02-20T01:58:04.806Z,101697.02
2019-02-20T02:00:33.976Z,101695.70
2019-02-20T02:03:02.907Z,101699.19
2019-02-20T02:05:31.858Z,101697.93
2019-02-20T02:08:01.229Z,101699.24
2019-02-20T02:10:31.427Z,101701.47
2019-02-20T02:13:00.520Z,101706.21
2019-02-20T02:15:29.420Z,101707.19
2019-02-20T02:18:02.961Z,101696.50
2019-02-20T02:20:32.249Z,101700.83
2019-02-20T02:23:01.140Z,101700.16
2019-02-20T02:25:30.094Z,101694.63
2019-02-20T02:27:59.323Z,101690.53
2019-02-20T02:30:28.754Z,101701.88
2019-02-20T02:32:57.668Z,101695.18
2019-02-20T02:35:26.715Z,101693.41
2019-02-20T02:37:58.252Z,101692.95
2019-02-20T02:40:27.535Z,101701.81
2019-02-20T02:42:56.701Z,101696.24
2019-02-20T02:45:26.353Z,101691.84
2019-02-20T02:47:55.450Z,101695.72
2019-02-20T02:50:24.361Z,101707.99
2019-02-20T02:52:53.372Z,101709.16
2019-02-20T02:55:25.301Z,101701.88
2019-02-20T02:57:54.929Z,101699.45
2019-02-20T03:00:24.059Z,101695.51
2019-02-20T03:02:53.152Z,101700.88
2019-02-20T03:05:24.525Z,101697.73
2019-02-20T03:07:53.491Z,101696.51
2019-02-20T03:10:22.417Z,101700.75
2019-02-20T03:12:51.652Z,101702.41
2019-02-20T03:15:20.575Z,101711.42
2019-02-20T03:17:49.908Z,101711.08
2019-02-20T03:20:18.740Z,101707.48
2019-02-20T03:22:47.768Z,101702.53
2019-02-20T03:25:21.446Z,101700.05
2019-02-20T03:27:49.765Z,101702.48
2019-02-20T03:30:18.830Z,101705.42
2019-02-20T03:32:47.686Z,101704.11
2019-02-20T03:35:16.507Z,101708.52
2019-02-20T03:37:45.564Z,101709.77
2019-02-20T03:40:14.607Z,101709.83
2019-02-20T03:42:43.699Z,101707.31
2019-02-20T03:45:12.624Z,101707.58
2019-02-20T03:47:41.925Z,101713.45
2019-02-20T03:50:10.902Z,101718.68
2019-02-20T03:52:40.028Z,101720.02
2019-02-20T03:55:09.180Z,101719.56
2019-02-20T03:57:38.364Z,101721.80
2019-02-20T04:00:07.621Z,101713.54
2019-02-20T04:02:36.716Z,101717.66
2019-02-20T04:05:05.959Z,101723.73
2019-02-20T04:07:34.816Z,101717.70
2019-02-20T04:10:04.111Z,101715.02
2019-02-20T04:12:33.013Z,101725.05
2019-02-20T04:15:06.352Z,101717.88
2019-02-20T04:17:36.421Z,101714.53
2019-02-20T04:20:06.189Z,101717.37
2019-02-20T04:22:35.255Z,101715.86
2019-02-20T04:25:04.281Z,101712.83
2019-02-20T04:27:33.366Z,101716.70
2019-02-20T04:30:02.287Z,101716.97
2019-02-20T04:32:31.208Z,101719.28
2019-02-20T04:35:00.424Z,101714.14
2019-02-20T04:37:29.321Z,101716.88
2019-02-20T04:39:58.389Z,101717.97
2019-02-20T04:42:27.477Z,101724.05
2019-02-20T04:44:56.869Z,101719.67
2019-02-20T04:47:26.216Z,101720.13
2019-02-20T04:49:55.159Z,101713.03
2019-02-20T04:52:24.018Z,101721.22
2019-02-20T04:54:52.954Z,101721.63
2019-02-20T04:57:21.974Z,101730.01
2019-02-20T04:59:50.803Z,101727.56
2019-02-20T05:02:19.925Z,101735.09
2019-02-20T05:04:48.721Z,101725.36
2019-02-20T05:07:17.572Z,101730.30
2019-02-20T05:09:46.482Z,101730.30
2019-02-20T05:12:15.396Z,101736.47
2019-02-20T05:14:44.339Z,101741.60
2019-02-20T05:17:13.226Z,101742.12
2019-02-20T05:19:44.423Z,101740.92
2019-02-20T05:22:13.333Z,101745.06
2019-02-20T05:24:42.483Z,101743.59
2019-02-20T05:27:11.524Z,101747.94
2019-02-20T05:29:40.669Z,101745.34
2019-02-20T05:32:09.542Z,101737.38
2019-02-20T05:34:38.404Z,101736.86
2019-02-20T05:37:07.698Z,101741.13
2019-02-20T05:39:36.506Z,101735.66
2019-02-20T05:42:05.850Z,101742.23
2019-02-20T05:44:35.818Z,101747.77
2019-02-20T05:47:04.969Z,101751.22
2019-02-20T05:49:33.802Z,101753.44
2019-02-20T05:52:03.745Z,101749.27
2019-02-20T05:54:34.966Z,101748.39
2019-02-20T05:57:03.387Z,101754.45
2019-02-20T05:59:32.213Z,101756.75
2019-02-20T06:02:01.028Z,101760.22
2019-02-20T06:04:29.913Z,101758.39
2019-02-20T06:06:58.818Z,101757.72
2019-02-20T06:09:28.539Z,101756.67
2019-02-20T06:11:57.553Z,101763.44
2019-02-20T06:18:08.501Z,101768.04
2019-02-20T06:20:40.253Z,101776.22
2019-02-20T06:23:09.250Z,101774.23
2019-02-20T06:25:40.080Z,101770.40
2019-02-20T06:28:09.787Z,101779.59
2019-02-20T06:30:39.378Z,101773.72
2019-02-20T06:33:08.615Z,101775.30
2019-02-20T06:35:37.440Z,101781.81
2019-02-20T06:38:10.674Z,101774.23
2019-02-20T06:40:38.070Z,101781.23
2019-02-20T06:43:07.621Z,101777.31
2019-02-20T06:45:36.801Z,101788.44
2019-02-20T06:48:05.559Z,101789.23
2019-02-20T06:50:34.364Z,101797.97
2019-02-20T06:53:03.214Z,101789.70
2019-02-20T06:55:32.091Z,101789.19
2019-02-20T06:58:00.972Z,101789.64
2019-02-20T07:00:30.019Z,101799.61
2019-02-20T07:02:58.891Z,101803.55
2019-02-20T07:05:39.477Z,101804.14
2019-02-20T07:08:44.700Z,101810.20
2019-02-20T07:11:25.193Z,101814.86
2019-02-20T07:14:10.345Z,101813.55
2019-02-20T07:16:57.794Z,101814.06
2019-02-20T07:19:40.762Z,101817.95
2019-02-20T07:22:50.599Z,101808.64
2019-02-20T07:25:43.625Z,101815.16
2019-02-20T07:28:41.904Z,101819.72
2019-02-20T07:31:12.516Z,101818.61
2019-02-20T07:33:41.500Z,101825.02
2019-02-20T07:36:10.823Z,101834.56
2019-02-20T07:38:40.123Z,101836.04
2019-02-20T07:41:09.249Z,101842.20
2019-02-20T07:43:38.195Z,101838.72
2019-02-20T07:46:07.209Z,101841.97
2019-02-20T07:48:36.458Z,101844.34
2019-02-20T07:51:05.258Z,101849.63
2019-02-20T07:53:35.514Z,101848.63
2019-02-20T07:56:05.630Z,101856.11
2019-02-20T07:58:34.669Z,101870.17
2019-02-20T08:01:03.635Z,101876.97
2019-02-20T08:03:33.036Z,101877.83
2019-02-20T08:06:02.517Z,101879.98
2019-02-20T08:08:32.051Z,101877.67
2019-02-20T08:11:01.837Z,101881.77
2019-02-20T08:13:39.068Z,101888.67
2019-02-20T08:16:01.883Z,101883.52
2019-02-20T08:18:32.296Z,101886.94
2019-02-20T08:21:01.424Z,101884.98
2019-02-20T08:23:30.579Z,101889.19
2019-02-20T08:25:59.815Z,101894.25
2019-02-20T08:28:28.736Z,101892.03
2019-02-20T08:30:57.805Z,101887.97
2019-02-20T08:33:28.109Z,101901.21
2019-02-20T08:35:57.436Z,101905.12
2019-02-20T08:38:26.749Z,101912.23
2019-02-20T08:40:55.581Z,101915.73
2019-02-20T08:43:24.847Z,101910.52
2019-02-20T08:45:53.624Z,101911.23
2019-02-20T08:48:23.266Z,101919.88
2019-02-20T08:50:52.568Z,101916.30
2019-02-20T08:53:21.722Z,101920.38
2019-02-20T08:55:50.979Z,101919.84
2019-02-20T08:58:20.234Z,101928.42
2019-02-20T09:00:49.126Z,101935.01
2019-02-20T09:03:18.833Z,101931.28
2019-02-20T09:05:47.658Z,101934.78
2019-02-20T09:08:16.585Z,101938.84
2019-02-20T09:10:45.948Z,101934.91
2019-02-20T09:13:14.804Z,101933.28
2019-02-20T09:15:45.514Z,101939.56
2019-02-20T09:18:15.804Z,101940.02
2019-02-20T09:20:48.318Z,101941.48
2019-02-20T09:23:18.332Z,101947.23
2019-02-20T09:25:47.758Z,101957.94
2019-02-20T09:28:17.312Z,101959.88
2019-02-20T09:30:46.435Z,101970.62
2019-02-20T09:33:15.785Z,101964.25
2019-02-20T09:35:46.240Z,101970.48
2019-02-20T09:38:16.707Z,101966.57
2019-02-20T09:40:45.667Z,101971.64
2019-02-20T09:43:15.880Z,101974.36
2019-02-20T09:45:45.807Z,101980.02
2019-02-20T09:48:14.933Z,101979.28
2019-02-20T09:50:44.482Z,101975.62
2019-02-20T09:53:17.423Z,101972.41
2019-02-20T09:55:51.541Z,101982.85
2019-02-20T09:58:17.376Z,101975.16
2019-02-20T10:00:47.002Z,101979.91
2019-02-20T10:03:16.556Z,101982.39
2019-02-20T10:05:45.332Z,101975.03
2019-02-20T10:08:14.518Z,101985.11
2019-02-20T10:10:44.043Z,101982.13
2019-02-20T10:13:13.482Z,101992.63
2019-02-20T10:15:43.013Z,101994.72
2019-02-20T10:18:13.065Z,101995.78
2019-02-20T10:20:43.867Z,101996.97
2019-02-20T10:23:13.222Z,102006.87
2019-02-20T10:25:42.618Z,102001.31
2019-02-20T10:28:11.961Z,102009.65
2019-02-20T10:30:40.761Z,102019.79
2019-02-20T10:33:10.101Z,102016.75
2019-02-20T10:35:40.369Z,102021.62
2019-02-20T10:38:09.378Z,102011.17
2019-02-20T10:40:38.877Z,102019.03
2019-02-20T10:43:07.734Z,102014.80
2019-02-20T10:45:36.923Z,102023.49
2019-02-20T10:48:06.130Z,102015.66
2019-02-20T10:50:35.114Z,102024.39
2019-02-20T10:53:04.344Z,102019.59
2019-02-20T10:55:33.575Z,102019.17
2019-02-20T10:58:02.834Z,102034.98
2019-02-20T11:00:32.752Z,102034.48
2019-02-20T11:03:01.584Z,102036.23
2019-02-20T11:05:30.536Z,102039.94
2019-02-20T11:07:59.653Z,102034.12
2019-02-20T11:10:29.983Z,102039.66
2019-02-20T11:12:59.249Z,102035.16
2019-02-20T11:15:30.571Z,102036.87
2019-02-20T11:17:59.550Z,102042.31
2019-02-20T11:20:29.940Z,102040.65
2019-02-20T11:22:59.272Z,102038.69
2019-02-20T11:25:28.820Z,102042.17
2019-02-20T11:27:57.863Z,102043.30
2019-02-20T11:30:26.945Z,102046.99
2019-02-20T11:32:57.850Z,102051.55
2019-02-20T11:35:26.942Z,102049.55
2019-02-20T11:37:56.398Z,102048.77
2019-02-20T11:40:25.618Z,102046.71
2019-02-20T11:42:54.410Z,102045.94
2019-02-20T11:45:24.911Z,102048.24
2019-02-20T11:47:55.002Z,102055.81
2019-02-20T11:50:23.957Z,102056.67
2019-02-20T11:52:52.925Z,102052.26
2019-02-20T11:55:22.305Z,102054.68
2019-02-20T11:58:00.297Z,102060.29
2019-02-20T12:00:23.480Z,102061.73
2019-02-20T12:02:53.459Z,102060.99
2019-02-20T12:05:25.844Z,102049.78
2019-02-20T12:07:54.770Z,102064.30
2019-02-20T12:10:23.945Z,102056.52
2019-02-20T12:12:53.184Z,102056.76
2019-02-20T12:15:22.442Z,102061.91
2019-02-20T12:17:51.614Z,102055.98
2019-02-20T12:20:20.709Z,102058.47
2019-02-20T12:22:49.921Z,102053.33
2019-02-20T12:25:19.922Z,102052.92
2019-02-20T12:27:49.194Z,102057.03
2019-02-20T12:30:18.797Z,102063.65
2019-02-20T12:32:49.535Z,102055.74
2019-02-20T12:35:18.799Z,102059.16
2019-02-20T12:37:48.211Z,102062.51
2019-02-20T12:40:19.147Z,102056.08
2019-02-20T12:42:48.592Z,102050.36
2019-02-20T12:45:17.866Z,102055.88
2019-02-20T12:47:46.636Z,102056.27
2019-02-20T12:50:15.865Z,102060.22
2019-02-20T12:52:45.271Z,102063.22
2019-02-20T12:55:15.460Z,102065.52
2019-02-20T12:57:44.753Z,102065.44
2019-02-20T13:00:15.746Z,102057.23
2019-02-20T13:02:44.561Z,102058.38
2019-02-20T13:05:13.818Z,102058.98
2019-02-20T13:07:42.887Z,102052.77
2019-02-20T13:10:14.396Z,102050.64
2019-02-20T13:12:44.354Z,102051.23
2019-02-20T13:15:13.325Z,102055.74
2019-02-20T13:17:42.280Z,102044.14
2019-02-20T13:20:11.483Z,102046.74
2019-02-20T13:22:40.649Z,102043.95
2019-02-20T13:25:10.263Z,102052.52
2019-02-20T13:27:40.236Z,102057.23
2019-02-20T13:30:10.394Z,102060.27
2019-02-20T13:32:39.691Z,102060.63
2019-02-20T13:35:09.271Z,102061.25
2019-02-20T13:37:38.268Z,102057.66
2019-02-20T13:40:07.929Z,102062.97
2019-02-20T13:42:39.106Z,102056.41
2019-02-20T13:45:10.280Z,102054.20
2019-02-20T13:47:40.438Z,102049.05
2019-02-20T13:50:11.817Z,102060.07
2019-02-20T13:52:52.426Z,102047.86
2019-02-20T13:55:34.022Z,102051.29
2019-02-20T13:57:57.069Z,102044.27
2019-02-20T14:00:27.229Z,102046.72
2019-02-20T14:02:56.094Z,102049.07
2019-02-20T14:05:25.731Z,102048.97
2019-02-20T14:07:55.052Z,102049.36
2019-02-20T14:10:24.030Z,102049.60
2019-02-20T14:12:54.331Z,102049.27
2019-02-20T14:15:25.090Z,102043.39
2019-02-20T14:17:55.766Z,102042.08
2019-02-20T14:20:25.122Z,102038.14
2019-02-20T14:22:59.903Z,102033.91
2019-02-20T14:25:30.569Z,102000.02
2019-02-20T14:28:18.436Z,102031.98
2019-02-20T14:30:48.724Z,102031.73
2019-02-20T14:33:18.864Z,102031.34
2019-02-20T14:35:49.295Z,102036.87
2019-02-20T14:38:25.758Z,102030.11
2019-02-20T14:40:55.093Z,102028.75
2019-02-20T14:43:26.611Z,102044.88
2019-02-20T14:46:10.039Z,102042.37
2019-02-20T14:48:52.908Z,102046.33
2019-02-20T14:51:20.823Z,102042.91
2019-02-20T14:53:51.584Z,102039.97
2019-02-20T14:56:20.536Z,102029.19
2019-02-20T14:58:50.674Z,102036.02
2019-02-20T15:01:20.107Z,102042.21
2019-02-20T15:03:51.173Z,102033.37
2019-02-20T15:06:20.483Z,102042.56
2019-02-20T15:08:49.710Z,102039.59
2019-02-20T15:11:19.047Z,102045.25
2019-02-20T15:13:47.865Z,102042.21
2019-02-20T15:16:16.983Z,102034.45
2019-02-20T15:18:46.272Z,102037.55
2019-02-20T15:21:16.755Z,102034.55
2019-02-20T15:23:45.745Z,102039.97
2019-02-20T15:26:16.609Z,102048.26
2019-02-20T15:28:47.010Z,102048.95
2019-02-20T15:31:16.160Z,102053.20
2019-02-20T15:33:45.051Z,102050.44
2019-02-20T15:36:13.881Z,102051.66
2019-02-20T15:38:43.300Z,102055.09
2019-02-20T15:41:12.556Z,102058.35
2019-02-20T15:43:41.435Z,102054.40
2019-02-20T15:46:11.827Z,102057.43
2019-02-20T15:48:41.224Z,102056.58
2019-02-20T15:51:10.230Z,102058.03
2019-02-20T15:53:39.401Z,102055.05
2019-02-20T15:56:08.334Z,102055.72
2019-02-20T15:58:37.445Z,102055.45
2019-02-20T16:01:09.129Z,102063.89
2019-02-20T16:03:38.411Z,102055.55
2019-02-20T16:06:07.541Z,102060.73
2019-02-20T16:08:36.728Z,102057.17
2019-02-20T16:11:05.770Z,102062.58
2019-02-20T16:13:36.046Z,102053.34
2019-02-20T16:16:05.045Z,102060.27
2019-02-20T16:18:34.234Z,102052.91
2019-02-20T16:21:03.545Z,102059.88
2019-02-20T16:23:32.767Z,102055.05
2019-02-20T16:26:02.302Z,102055.12
2019-02-20T16:28:33.895Z,102055.91
2019-02-20T16:31:03.486Z,102054.92
2019-02-20T16:33:34.494Z,102051.89
2019-02-20T16:36:04.532Z,102054.92
2019-02-20T16:38:33.864Z,102054.99
2019-02-20T16:41:04.744Z,102058.09
2019-02-20T16:43:35.417Z,102056.25
2019-02-20T16:46:04.783Z,102072.59
2019-02-20T16:48:33.681Z,102064.29
2019-02-20T16:51:02.622Z,102055.34
2019-02-20T16:53:37.855Z,102072.30
2019-02-20T16:56:07.192Z,102079.03
2019-02-20T16:58:36.199Z,102075.89
2019-02-20T17:07:38.684Z,102075.47
2019-02-20T17:10:11.527Z,102082.06
2019-02-20T17:12:54.217Z,102085.92
2019-02-20T17:15:27.728Z,102082.47
2019-02-20T17:18:00.098Z,102029.77
2019-02-20T17:20:30.682Z,102089.02
2019-02-20T17:23:00.977Z,102094.39
2019-02-20T17:25:36.790Z,102087.98
2019-02-20T17:28:09.320Z,102097.03
2019-02-20T17:30:39.726Z,102104.78
2019-02-20T17:33:08.857Z,102111.47
2019-02-20T17:35:38.734Z,102110.98
2019-02-20T17:43:53.587Z,102120.03
2019-02-20T17:46:23.157Z,102109.81
2019-02-20T17:48:52.623Z,102122.84
2019-02-20T17:51:24.032Z,102112.51
2019-02-20T17:53:53.295Z,102123.05
2019-02-20T17:56:22.540Z,102125.36
2019-02-20T17:58:53.891Z,102117.45
2019-02-20T18:01:23.723Z,102123.45
2019-02-20T18:03:52.923Z,102132.28
2019-02-20T18:06:21.890Z,102126.55
2019-02-20T18:08:50.769Z,102126.16
2019-02-20T18:11:20.905Z,102133.61
2019-02-20T18:13:49.717Z,102129.31
2019-02-20T18:16:18.539Z,102137.23
2019-02-20T18:18:48.335Z,102129.71
2019-02-20T18:21:17.386Z,102123.12
2019-02-20T18:23:46.572Z,102128.06
2019-02-20T18:26:16.589Z,102122.20
2019-02-20T18:28:45.439Z,102127.88
2019-02-20T18:31:14.262Z,102126.95
2019-02-20T18:33:43.129Z,102135.30
2019-02-20T18:36:12.807Z,102139.34
2019-02-20T18:38:41.913Z,102141.45
2019-02-20T18:41:11.437Z,102142.77
2019-02-20T18:43:40.789Z,102144.62
2019-02-20T18:46:09.686Z,102144.16
2019-02-20T18:48:40.553Z,102141.98
2019-02-20T18:51:09.533Z,102136.18
2019-02-20T18:53:38.977Z,102128.27
2019-02-20T18:56:09.162Z,102126.16
2019-02-20T18:58:39.317Z,102122.20
2019-02-20T19:01:14.579Z,102127.88
2019-02-20T19:07:24.570Z,102126.09
2019-02-20T19:09:56.068Z,102123.45
2019-02-20T19:13:00.427Z,102125.63
2019-02-20T19:16:26.653Z,102128.70
2019-02-20T19:19:34.748Z,102132.22
2019-02-20T19:22:22.887Z,102126.86
2019-02-20T19:28:52.492Z,102134.98
2019-02-20T19:32:08.642Z,102132.22
2019-02-20T19:35:00.686Z,102139.71
2019-02-20T19:37:52.185Z,102129.59
2019-02-20T19:40:43.712Z,102138.73
2019-02-20T19:43:37.600Z,102133.91
2019-02-20T19:46:59.603Z,102128.97
2019-02-20T19:50:13.473Z,102131.08
2019-02-20T19:53:09.797Z,102131.61
2019-02-20T19:56:02.388Z,102128.57
2019-02-20T19:59:08.415Z,102132.01
2019-02-20T20:02:16.443Z,102124.48
2019-02-20T20:05:22.633Z,102119.34
2019-02-20T20:08:05.054Z,102123.17
2019-02-20T20:11:05.047Z,102122.67
2019-02-20T20:14:21.833Z,102118.81
2019-02-20T20:17:38.358Z,102121.76
2019-02-20T20:20:12.939Z,102111.89
2019-02-20T20:26:57.483Z,102108.17
2019-02-20T20:33:38.685Z,102112.13
2019-02-20T20:36:38.226Z,102114.30
2019-02-20T20:39:59.652Z,102116.35
2019-02-20T20:43:12.549Z,102115.09
2019-02-20T20:46:25.435Z,102121.23
2019-02-20T20:49:57.463Z,102115.16
2019-02-20T21:06:28.739Z,102118.02
2019-02-20T21:09:49.419Z,102117.63
2019-02-20T21:13:11.854Z,102117.23
2019-02-20T21:16:06.203Z,102115.51
2019-02-20T21:19:08.075Z,102114.06
2019-02-20T21:21:55.225Z,102116.30
2019-02-20T21:24:56.907Z,102118.15
2019-02-20T21:28:05.769Z,102116.77
2019-02-20T21:31:16.363Z,102121.58
2019-02-20T21:34:32.661Z,102116.30
2019-02-20T21:37:58.141Z,102117.30
2019-02-20T21:40:41.925Z,102117.69
2019-02-20T21:44:04.591Z,102124.28
2019-02-20T21:46:57.222Z,102122.50
2019-02-20T21:49:56.504Z,102124.38
2019-02-20T21:52:49.851Z,102121.67
2019-02-20T21:56:16.113Z,102122.59
2019-02-20T21:59:22.427Z,102120.88
2019-02-20T22:02:29.495Z,102127.53
2019-02-20T22:05:16.339Z,102125.36
2019-02-20T22:07:58.817Z,102124.44
2019-02-20T22:11:20.657Z,102130.23
2019-02-20T22:14:16.817Z,102135.57
2019-02-20T22:16:57.626Z,102123.25
2019-02-20T22:19:54.809Z,102127.59
2019-02-20T22:23:03.281Z,102130.76
2019-02-20T22:26:24.987Z,102129.53
2019-02-20T22:29:34.874Z,102129.93
2019-02-20T22:32:49.164Z,102136.06
2019-02-20T22:36:07.417Z,102129.93
2019-02-20T22:38:55.064Z,102135.72
2019-02-20T22:41:58.188Z,102131.77
2019-02-20T22:44:58.326Z,102131.89
2019-02-20T22:47:47.181Z,102128.34
2019-02-20T22:50:54.461Z,102127.94
2019-02-20T22:57:18.770Z,102121.10
2019-02-20T23:00:34.390Z,102122.84
2019-02-20T23:03:09.126Z,102125.00
2019-02-20T23:05:51.797Z,102124.23
2019-02-20T23:09:07.259Z,102130.36
2019-02-20T23:12:08.840Z,102118.95
2019-02-20T23:14:57.420Z,102121.65
2019-02-20T23:17:27.306Z,102116.07
2019-02-20T23:19:57.990Z,102123.86
2019-02-20T23:22:26.894Z,102115.55
2019-02-20T23:24:57.111Z,102122.97
2019-02-20T23:27:26.575Z,102120.83
2019-02-20T23:29:55.782Z,102126.09
2019-02-20T23:32:24.998Z,102127.66
2019-02-20T23:34:54.430Z,102126.09
2019-02-20T23:37:23.348Z,102119.41
2019-02-20T23:39:52.282Z,102120.95
2019-02-20T23:42:21.295Z,102123.98
2019-02-20T23:44:50.193Z,102121.92
2019-02-20T23:47:19.292Z,102127.01
2019-02-20T23:49:49.164Z,102125.75
2019-02-20T23:52:18.054Z,102124.13
2019-02-20T23:54:47.281Z,102116.09
2019-02-20T23:57:16.420Z,102124.64
2019-02-20T23:59:46.145Z,102117.59
